createdAt,value
2019-06-20T00:00:46.012Z,916.63
2019-06-20T00:01:45.980Z,916.65
2019-06-20T00:02:45.934Z,916.61
2019-06-20T00:03:45.928Z,916.63
2019-06-20T00:04:46.041Z,916.64
2019-06-20T00:05:45.836Z,916.63
2019-06-20T00:06:45.811Z,916.65
2019-06-20T00:07:45.771Z,916.64
2019-06-20T00:08:45.742Z,916.68
2019-06-20T00:10:45.689Z,916.71
2019-06-20T00:11:45.628Z,916.71
2019-06-20T00:12:59.575Z,916.71
2019-06-20T00:13:45.551Z,916.73
2019-06-20T00:14:45.523Z,916.73
2019-06-20T00:15:45.593Z,916.79
2019-06-20T00:16:45.445Z,916.82
2019-06-20T00:17:45.413Z,916.82
2019-06-20T00:18:45.405Z,916.86
2019-06-20T00:19:45.374Z,916.85
2019-06-20T00:20:45.309Z,916.87
2019-06-20T00:21:45.277Z,916.85
2019-06-20T00:22:45.272Z,916.89
2019-06-20T00:23:45.444Z,916.92
2019-06-20T00:24:45.187Z,916.91
2019-06-20T00:25:45.154Z,916.91
2019-06-20T00:26:45.218Z,916.96
2019-06-20T00:27:46.289Z,916.96
2019-06-20T00:28:45.045Z,916.95
2019-06-20T00:29:45.028Z,916.97
2019-06-20T00:30:44.975Z,916.97
2019-06-20T00:31:44.968Z,916.97
2019-06-20T00:32:44.968Z,916.97
2019-06-20T00:33:44.866Z,916.95
2019-06-20T00:34:44.847Z,916.96
2019-06-20T00:35:44.871Z,916.95
2019-06-20T00:36:44.828Z,917.00
2019-06-20T00:37:44.730Z,916.99
2019-06-20T00:38:44.686Z,916.99
2019-06-20T00:39:44.716Z,916.97
2019-06-20T00:40:44.627Z,917.00
2019-06-20T00:41:44.578Z,917.01
2019-06-20T00:42:44.740Z,916.99
2019-06-20T00:43:44.568Z,917.00
2019-06-20T00:44:44.470Z,916.99
2019-06-20T00:45:44.473Z,916.97
2019-06-20T00:46:44.395Z,916.98
2019-06-20T00:47:44.377Z,916.95
2019-06-20T00:48:44.347Z,916.95
2019-06-20T00:49:44.293Z,916.91
2019-06-20T00:50:44.286Z,916.95
2019-06-20T00:51:44.225Z,916.92
2019-06-20T00:52:44.196Z,916.93
2019-06-20T00:53:44.305Z,916.94
2019-06-20T00:54:44.118Z,916.93
2019-06-20T00:55:44.122Z,916.97
2019-06-20T00:56:44.066Z,916.92
2019-06-20T00:57:44.014Z,916.90
2019-06-20T00:58:44.020Z,916.90
2019-06-20T00:59:43.984Z,916.88
2019-06-20T01:00:43.976Z,916.88
2019-06-20T01:01:43.887Z,916.89
2019-06-20T01:02:43.867Z,916.88
2019-06-20T01:03:43.817Z,916.85
2019-06-20T01:04:43.770Z,916.87
2019-06-20T01:05:43.772Z,916.89
2019-06-20T01:06:43.703Z,916.86
2019-06-20T01:07:43.766Z,916.88
2019-06-20T01:08:43.664Z,916.87
2019-06-20T01:09:43.609Z,916.82
2019-06-20T01:10:43.833Z,916.86
2019-06-20T01:11:43.521Z,916.82
2019-06-20T01:12:43.544Z,916.82
2019-06-20T01:13:43.534Z,916.83
2019-06-20T01:14:43.402Z,916.81
2019-06-20T01:15:43.387Z,916.79
2019-06-20T01:16:43.360Z,916.81
2019-06-20T01:17:43.310Z,916.82
2019-06-20T01:18:43.282Z,916.82
2019-06-20T01:19:43.232Z,916.82
2019-06-20T01:20:43.225Z,916.82
2019-06-20T01:21:43.462Z,916.82
2019-06-20T01:22:43.138Z,916.78
2019-06-20T01:23:43.096Z,916.81
2019-06-20T01:24:43.060Z,916.83
2019-06-20T01:25:43.014Z,916.83
2019-06-20T01:26:42.977Z,916.82
2019-06-20T01:27:43.158Z,916.82
2019-06-20T01:28:42.903Z,916.81
2019-06-20T01:29:42.992Z,916.78
2019-06-20T01:30:42.841Z,916.80
2019-06-20T01:31:42.800Z,916.77
2019-06-20T01:32:42.776Z,916.77
2019-06-20T01:33:42.764Z,916.75
2019-06-20T01:34:42.688Z,916.80
2019-06-20T01:35:42.690Z,916.81
2019-06-20T01:36:42.636Z,916.78
2019-06-20T01:37:42.585Z,916.76
2019-06-20T01:38:42.546Z,916.78
2019-06-20T01:39:42.515Z,916.76
2019-06-20T01:40:42.502Z,916.78
2019-06-20T01:41:42.440Z,916.74
2019-06-20T01:42:42.661Z,916.76
2019-06-20T01:43:50.593Z,916.76
2019-06-20T01:44:42.343Z,916.79
2019-06-20T01:45:42.310Z,916.81
2019-06-20T01:46:42.266Z,916.82
2019-06-20T01:47:42.242Z,916.77
2019-06-20T01:48:42.205Z,916.79
2019-06-20T01:49:42.192Z,916.78
2019-06-20T01:50:42.125Z,916.81
2019-06-20T01:51:42.098Z,916.83
2019-06-20T01:52:42.046Z,916.79
2019-06-20T01:53:42.012Z,916.84
2019-06-20T01:54:41.981Z,916.82
2019-06-20T01:55:41.955Z,916.80
2019-06-20T01:56:41.909Z,916.83
2019-06-20T01:57:41.872Z,916.79
2019-06-20T01:58:41.840Z,916.78
2019-06-20T01:59:41.827Z,916.77
2019-06-20T02:00:41.768Z,916.76
2019-06-20T02:01:41.730Z,916.78
2019-06-20T02:02:41.700Z,916.78
2019-06-20T02:03:41.955Z,916.77
2019-06-20T02:04:41.623Z,916.77
2019-06-20T02:05:41.584Z,916.76
2019-06-20T02:06:41.578Z,916.77
2019-06-20T02:07:41.511Z,916.81
2019-06-20T02:08:41.566Z,916.81
2019-06-20T02:09:41.460Z,916.81
2019-06-20T02:10:41.419Z,916.78
2019-06-20T02:11:41.371Z,916.79
2019-06-20T02:12:41.368Z,916.83
2019-06-20T02:13:41.447Z,916.86
2019-06-20T02:14:41.265Z,916.83
2019-06-20T02:15:41.237Z,916.81
2019-06-20T02:16:41.195Z,916.85
2019-06-20T02:17:41.158Z,916.83
2019-06-20T02:18:41.142Z,916.86
2019-06-20T02:19:41.231Z,916.88
2019-06-20T02:20:41.056Z,916.85
2019-06-20T02:21:41.038Z,916.89
2019-06-20T02:22:40.985Z,916.88
2019-06-20T02:23:40.951Z,916.87
2019-06-20T02:24:40.935Z,916.87
2019-06-20T02:25:41.091Z,916.84
2019-06-20T02:26:40.832Z,916.84
2019-06-20T02:27:40.818Z,916.88
2019-06-20T02:28:40.770Z,916.86
2019-06-20T02:29:40.733Z,916.87
2019-06-20T02:30:40.813Z,916.88
2019-06-20T02:31:40.665Z,916.90
2019-06-20T02:32:40.621Z,916.89
2019-06-20T02:33:40.584Z,916.89
2019-06-20T02:34:40.554Z,916.87
2019-06-20T02:35:40.504Z,916.91
2019-06-20T02:36:40.545Z,916.90
2019-06-20T02:37:40.442Z,916.90
2019-06-20T02:38:40.410Z,916.92
2019-06-20T02:39:40.371Z,916.90
2019-06-20T02:41:40.330Z,916.90
2019-06-20T02:42:40.256Z,916.94
2019-06-20T02:43:40.232Z,916.98
2019-06-20T02:44:40.186Z,917.00
2019-06-20T02:45:40.200Z,917.03
2019-06-20T02:46:40.267Z,917.03
2019-06-20T02:47:40.078Z,917.06
2019-06-20T02:48:40.036Z,917.03
2019-06-20T02:49:40.005Z,917.04
2019-06-20T02:50:39.977Z,917.01
2019-06-20T02:51:39.938Z,917.04
2019-06-20T02:52:39.900Z,916.98
2019-06-20T02:53:39.878Z,917.01
2019-06-20T02:54:39.833Z,917.00
2019-06-20T02:55:39.798Z,916.98
2019-06-20T02:56:39.766Z,917.01
2019-06-20T02:57:39.725Z,917.04
2019-06-20T02:58:39.700Z,917.03
2019-06-20T02:59:39.636Z,917.07
2019-06-20T03:00:39.676Z,917.02
2019-06-20T03:01:39.567Z,917.01
2019-06-20T03:02:39.711Z,916.98
2019-06-20T03:03:39.505Z,916.98
2019-06-20T03:04:39.457Z,916.99
2019-06-20T03:05:39.443Z,916.93
2019-06-20T03:06:39.399Z,916.94
2019-06-20T03:08:39.340Z,916.96
2019-06-20T03:09:39.330Z,917.02
2019-06-20T03:10:39.253Z,916.95
2019-06-20T03:11:39.229Z,916.99
2019-06-20T03:12:39.176Z,916.96
2019-06-20T03:13:39.140Z,916.95
2019-06-20T03:14:45.426Z,916.95
2019-06-20T03:15:39.064Z,916.97
2019-06-20T03:16:39.029Z,916.98
2019-06-20T03:17:39.069Z,916.97
2019-06-20T03:18:38.951Z,917.00
2019-06-20T03:19:38.992Z,917.00
2019-06-20T03:20:38.885Z,917.00
2019-06-20T03:21:38.843Z,917.03
2019-06-20T03:22:38.813Z,917.04
2019-06-20T03:23:38.777Z,917.02
2019-06-20T03:24:38.750Z,917.03
2019-06-20T03:25:38.699Z,917.07
2019-06-20T03:26:38.675Z,917.04
2019-06-20T03:27:38.642Z,917.02
2019-06-20T03:28:38.602Z,917.02
2019-06-20T03:29:38.559Z,917.05
2019-06-20T03:30:38.532Z,917.00
2019-06-20T03:31:38.491Z,917.03
2019-06-20T03:32:38.445Z,917.00
2019-06-20T03:33:38.407Z,916.99
2019-06-20T03:35:38.346Z,916.98
2019-06-20T03:36:38.313Z,916.96
2019-06-20T03:37:38.286Z,916.96
2019-06-20T03:38:38.249Z,916.99
2019-06-20T03:39:38.187Z,916.99
2019-06-20T03:40:38.436Z,916.96
2019-06-20T03:41:38.135Z,916.98
2019-06-20T03:42:38.086Z,916.98
2019-06-20T03:43:38.057Z,916.96
2019-06-20T03:44:38.008Z,916.97
2019-06-20T03:45:37.971Z,916.96
2019-06-20T03:46:38.081Z,916.93
2019-06-20T03:47:37.903Z,916.96
2019-06-20T03:48:37.861Z,916.98
2019-06-20T03:49:37.822Z,916.98
2019-06-20T03:50:37.805Z,916.98
2019-06-20T03:51:37.815Z,916.98
2019-06-20T03:52:37.734Z,916.99
2019-06-20T03:53:37.675Z,916.98
2019-06-20T03:54:37.663Z,916.96
2019-06-20T03:55:37.607Z,916.99
2019-06-20T03:56:37.581Z,916.99
2019-06-20T03:57:37.680Z,917.00
2019-06-20T03:58:37.510Z,916.99
2019-06-20T03:59:37.481Z,916.98
2019-06-20T04:00:37.433Z,916.99
2019-06-20T04:01:37.431Z,917.03
2019-06-20T04:02:37.369Z,916.96
2019-06-20T04:03:37.325Z,917.00
2019-06-20T04:04:37.281Z,916.97
2019-06-20T04:05:37.239Z,916.98
2019-06-20T04:06:37.229Z,916.99
2019-06-20T04:07:37.185Z,917.00
2019-06-20T04:08:37.140Z,916.98
2019-06-20T04:09:37.105Z,917.00
2019-06-20T04:10:37.060Z,916.95
2019-06-20T04:11:37.026Z,916.99
2019-06-20T04:12:36.991Z,916.98
2019-06-20T04:13:36.960Z,916.96
2019-06-20T04:14:36.918Z,916.98
2019-06-20T04:15:36.903Z,916.96
2019-06-20T04:16:36.845Z,916.97
2019-06-20T04:17:36.979Z,916.92
2019-06-20T04:18:36.771Z,916.95
2019-06-20T04:19:36.736Z,916.91
2019-06-20T04:20:36.713Z,916.90
2019-06-20T04:21:36.671Z,916.89
2019-06-20T04:22:36.656Z,916.93
2019-06-20T04:23:36.585Z,916.92
2019-06-20T04:24:36.551Z,916.88
2019-06-20T04:25:36.515Z,916.86
2019-06-20T04:26:36.480Z,916.86
2019-06-20T04:27:36.439Z,916.82
2019-06-20T04:28:36.399Z,916.87
2019-06-20T04:29:36.367Z,916.88
2019-06-20T04:30:36.324Z,916.87
2019-06-20T04:31:36.298Z,916.85
2019-06-20T04:32:36.256Z,916.85
2019-06-20T04:33:36.216Z,916.86
2019-06-20T04:34:36.195Z,916.84
2019-06-20T04:35:36.149Z,916.82
2019-06-20T04:36:36.119Z,916.81
2019-06-20T04:37:36.075Z,916.82
2019-06-20T04:38:36.038Z,916.77
2019-06-20T04:39:36.005Z,916.78
2019-06-20T04:40:35.974Z,916.79
2019-06-20T04:41:35.938Z,916.74
2019-06-20T04:42:35.897Z,916.74
2019-06-20T04:43:35.858Z,916.74
2019-06-20T04:44:35.813Z,916.69
2019-06-20T04:45:35.880Z,916.67
2019-06-20T04:46:35.741Z,916.66
2019-06-20T04:47:35.730Z,916.64
2019-06-20T04:48:35.668Z,916.65
2019-06-20T04:49:35.640Z,916.67
2019-06-20T04:50:35.635Z,916.62
2019-06-20T04:51:35.559Z,916.61
2019-06-20T04:52:35.520Z,916.61
2019-06-20T04:53:35.486Z,916.59
2019-06-20T04:54:35.550Z,916.59
2019-06-20T04:55:35.651Z,916.55
2019-06-20T04:56:35.378Z,916.54
2019-06-20T04:57:35.344Z,916.52
2019-06-20T04:58:35.302Z,916.49
2019-06-20T04:59:35.265Z,916.50
2019-06-20T05:00:35.238Z,916.50
2019-06-20T05:01:35.195Z,916.50
2019-06-20T05:02:35.155Z,916.52
2019-06-20T05:03:35.136Z,916.48
2019-06-20T05:04:35.114Z,916.48
2019-06-20T05:05:35.053Z,916.50
2019-06-20T05:06:35.014Z,916.48
2019-06-20T05:07:34.970Z,916.48
2019-06-20T05:08:34.937Z,916.45
2019-06-20T05:09:34.892Z,916.45
2019-06-20T05:10:34.866Z,916.48
2019-06-20T05:11:34.829Z,916.43
2019-06-20T05:12:34.788Z,916.43
2019-06-20T05:13:34.755Z,916.41
2019-06-20T05:14:34.718Z,916.38
2019-06-20T05:15:51.123Z,916.39
2019-06-20T05:16:34.645Z,916.41
2019-06-20T05:17:34.615Z,916.40
2019-06-20T05:18:34.584Z,916.41
2019-06-20T05:19:34.529Z,916.42
2019-06-20T05:20:34.496Z,916.43
2019-06-20T05:21:34.454Z,916.43
2019-06-20T05:22:34.617Z,916.44
2019-06-20T05:23:34.379Z,916.42
2019-06-20T05:24:34.344Z,916.41
2019-06-20T05:25:34.306Z,916.42
2019-06-20T05:26:34.276Z,916.44
2019-06-20T05:27:34.229Z,916.44
2019-06-20T05:28:34.503Z,916.42
2019-06-20T05:29:34.175Z,916.45
2019-06-20T05:30:34.158Z,916.44
2019-06-20T05:31:34.095Z,916.45
2019-06-20T05:32:34.054Z,916.47
2019-06-20T05:33:34.010Z,916.44
2019-06-20T05:34:33.982Z,916.46
2019-06-20T05:35:33.939Z,916.45
2019-06-20T05:36:33.898Z,916.40
2019-06-20T05:37:33.865Z,916.40
2019-06-20T05:38:33.833Z,916.35
2019-06-20T05:39:33.796Z,916.39
2019-06-20T05:40:37.009Z,916.36
2019-06-20T05:41:33.730Z,916.42
2019-06-20T05:42:33.686Z,916.35
2019-06-20T05:43:33.644Z,916.32
2019-06-20T05:44:33.615Z,916.33
2019-06-20T05:45:33.820Z,916.32
2019-06-20T05:46:33.533Z,916.33
2019-06-20T05:47:33.493Z,916.33
2019-06-20T05:48:33.462Z,916.37
2019-06-20T05:49:33.419Z,916.33
2019-06-20T05:50:33.388Z,916.33
2019-06-20T05:51:33.542Z,916.38
2019-06-20T05:52:33.305Z,916.36
2019-06-20T05:53:33.271Z,916.35
2019-06-20T05:54:33.234Z,916.37
2019-06-20T05:55:33.205Z,916.38
2019-06-20T05:56:33.163Z,916.36
2019-06-20T05:57:33.195Z,916.37
2019-06-20T05:58:33.088Z,916.37
2019-06-20T05:59:33.067Z,916.39
2019-06-20T06:00:33.014Z,916.38
2019-06-20T06:01:32.976Z,916.38
2019-06-20T06:02:32.935Z,916.39
2019-06-20T06:03:33.598Z,916.40
2019-06-20T06:04:32.864Z,916.42
2019-06-20T06:05:32.847Z,916.41
2019-06-20T06:06:32.786Z,916.40
2019-06-20T06:07:32.753Z,916.39
2019-06-20T06:08:32.714Z,916.42
2019-06-20T06:09:32.686Z,916.37
2019-06-20T06:10:32.645Z,916.33
2019-06-20T06:11:32.612Z,916.35
2019-06-20T06:12:32.565Z,916.32
2019-06-20T06:13:32.538Z,916.34
2019-06-20T06:14:32.493Z,916.31
2019-06-20T06:15:32.455Z,916.33
2019-06-20T06:16:32.415Z,916.32
2019-06-20T06:17:32.378Z,916.33
2019-06-20T06:18:32.344Z,916.31
2019-06-20T06:19:32.614Z,916.35
2019-06-20T06:20:32.281Z,916.36
2019-06-20T06:21:32.234Z,916.32
2019-06-20T06:22:32.198Z,916.33
2019-06-20T06:23:32.156Z,916.36
2019-06-20T06:24:32.116Z,916.33
2019-06-20T06:25:32.093Z,916.35
2019-06-20T06:26:32.041Z,916.33
2019-06-20T06:27:32.014Z,916.34
2019-06-20T06:28:31.972Z,916.37
2019-06-20T06:29:31.937Z,916.35
2019-06-20T06:30:31.894Z,916.32
2019-06-20T06:31:31.861Z,916.35
2019-06-20T06:32:40.071Z,916.42
2019-06-20T06:33:31.784Z,916.38
2019-06-20T06:34:31.749Z,916.38
2019-06-20T06:35:31.723Z,916.40
2019-06-20T06:36:31.687Z,916.38
2019-06-20T06:37:31.633Z,916.40
2019-06-20T06:38:31.601Z,916.40
2019-06-20T06:39:31.557Z,916.39
2019-06-20T06:40:31.523Z,916.37
2019-06-20T06:41:31.784Z,916.39
2019-06-20T06:42:31.446Z,916.38
2019-06-20T06:43:31.423Z,916.40
2019-06-20T06:44:31.876Z,916.39
2019-06-20T06:45:31.337Z,916.39
2019-06-20T06:46:43.605Z,916.41
2019-06-20T06:47:31.261Z,916.41
2019-06-20T06:48:31.227Z,916.47
2019-06-20T06:49:31.207Z,916.48
2019-06-20T06:50:31.144Z,916.48
2019-06-20T06:51:31.119Z,916.48
2019-06-20T06:52:31.076Z,916.49
2019-06-20T06:53:31.034Z,916.49
2019-06-20T06:54:31.004Z,916.48
2019-06-20T06:55:30.968Z,916.49
2019-06-20T06:56:30.924Z,916.49
2019-06-20T06:57:30.886Z,916.47
2019-06-20T06:58:30.858Z,916.48
2019-06-20T06:59:30.811Z,916.47
2019-06-20T07:00:30.777Z,916.48
2019-06-20T07:01:30.744Z,916.45
2019-06-20T07:02:30.735Z,916.50
2019-06-20T07:03:30.662Z,916.47
2019-06-20T07:04:30.621Z,916.47
2019-06-20T07:05:30.587Z,916.52
2019-06-20T07:06:30.575Z,916.46
2019-06-20T07:07:30.516Z,916.45
2019-06-20T07:08:30.592Z,916.44
2019-06-20T07:09:30.444Z,916.48
2019-06-20T07:10:30.400Z,916.46
2019-06-20T07:11:30.362Z,916.50
2019-06-20T07:12:30.346Z,916.44
2019-06-20T07:13:30.289Z,916.46
2019-06-20T07:14:30.550Z,916.50
2019-06-20T07:15:30.214Z,916.48
2019-06-20T07:16:30.181Z,916.48
2019-06-20T07:17:30.147Z,916.53
2019-06-20T07:18:30.112Z,916.53
2019-06-20T07:19:30.065Z,916.53
2019-06-20T07:20:30.027Z,916.57
2019-06-20T07:21:29.986Z,916.56
2019-06-20T07:22:29.949Z,916.59
2019-06-20T07:23:29.914Z,916.57
2019-06-20T07:24:29.879Z,916.56
2019-06-20T07:25:29.857Z,916.57
2019-06-20T07:26:29.805Z,916.61
2019-06-20T07:27:29.808Z,916.61
2019-06-20T07:28:29.736Z,916.63
2019-06-20T07:29:29.704Z,916.66
2019-06-20T07:30:29.682Z,916.68
2019-06-20T07:31:29.632Z,916.67
2019-06-20T07:32:29.604Z,916.67
2019-06-20T07:33:29.546Z,916.66
2019-06-20T07:34:29.500Z,916.67
2019-06-20T07:35:29.471Z,916.68
2019-06-20T07:36:29.654Z,916.70
2019-06-20T07:37:29.387Z,916.71
2019-06-20T07:38:29.364Z,916.67
2019-06-20T07:39:29.313Z,916.65
2019-06-20T07:40:29.274Z,916.67
2019-06-20T07:41:29.240Z,916.67
2019-06-20T07:42:29.406Z,916.69
2019-06-20T07:43:29.167Z,916.70
2019-06-20T07:44:29.126Z,916.64
2019-06-20T07:45:29.094Z,916.67
2019-06-20T07:46:29.108Z,916.68
2019-06-20T07:47:29.240Z,916.69
2019-06-20T07:48:29.081Z,916.68
2019-06-20T07:49:28.946Z,916.70
2019-06-20T07:50:28.900Z,916.69
2019-06-20T07:51:28.873Z,916.68
2019-06-20T07:52:28.825Z,916.69
2019-06-20T07:53:28.816Z,916.70
2019-06-20T07:54:28.796Z,916.70
2019-06-20T07:55:28.727Z,916.67
2019-06-20T07:56:28.674Z,916.67
2019-06-20T07:57:28.646Z,916.66
2019-06-20T07:58:28.605Z,916.67
2019-06-20T07:59:28.563Z,916.67
2019-06-20T08:00:28.578Z,916.64
2019-06-20T08:01:28.488Z,916.67
2019-06-20T08:02:28.480Z,916.69
2019-06-20T08:03:28.724Z,916.66
2019-06-20T08:04:28.380Z,916.64
2019-06-20T08:05:28.345Z,916.68
2019-06-20T08:06:28.301Z,916.65
2019-06-20T08:07:28.260Z,916.66
2019-06-20T08:08:28.230Z,916.71
2019-06-20T08:09:43.961Z,916.71
2019-06-20T08:10:28.147Z,916.72
2019-06-20T08:11:28.121Z,916.78
2019-06-20T08:12:28.081Z,916.81
2019-06-20T08:13:28.088Z,916.83
2019-06-20T08:14:27.999Z,916.82
2019-06-20T08:15:27.962Z,916.80
2019-06-20T08:16:27.931Z,916.84
2019-06-20T08:17:35.358Z,916.82
2019-06-20T08:18:27.853Z,916.82
2019-06-20T08:19:27.811Z,916.86
2019-06-20T08:20:27.778Z,916.88
2019-06-20T08:21:27.763Z,916.92
2019-06-20T08:22:27.699Z,916.91
2019-06-20T08:23:27.663Z,916.91
2019-06-20T08:24:27.621Z,916.91
2019-06-20T08:25:27.610Z,916.94
2019-06-20T08:26:27.546Z,916.93
2019-06-20T08:27:27.508Z,916.92
2019-06-20T08:28:27.485Z,916.90
2019-06-20T08:29:27.436Z,916.94
2019-06-20T08:30:27.599Z,916.94
2019-06-20T08:31:27.379Z,916.98
2019-06-20T08:32:27.327Z,916.92
2019-06-20T08:33:27.290Z,916.90
2019-06-20T08:34:27.242Z,916.90
2019-06-20T08:35:27.207Z,916.84
2019-06-20T08:36:27.418Z,916.88
2019-06-20T08:37:27.172Z,916.88
2019-06-20T08:38:27.120Z,916.91
2019-06-20T08:39:29.251Z,916.87
2019-06-20T08:40:27.016Z,916.94
2019-06-20T08:41:26.996Z,916.94
2019-06-20T08:42:26.944Z,916.93
2019-06-20T08:43:26.910Z,916.94
2019-06-20T08:44:26.866Z,916.93
2019-06-20T08:45:26.832Z,916.94
2019-06-20T08:46:26.787Z,916.94
2019-06-20T08:47:26.752Z,916.92
2019-06-20T08:48:26.712Z,916.94
2019-06-20T08:49:26.677Z,916.93
2019-06-20T08:50:26.647Z,916.94
2019-06-20T08:51:26.606Z,916.93
2019-06-20T08:52:26.558Z,916.93
2019-06-20T08:53:26.544Z,916.93
2019-06-20T08:54:26.487Z,916.93
2019-06-20T08:55:26.465Z,916.88
2019-06-20T08:56:26.420Z,916.88
2019-06-20T08:57:26.929Z,916.89
2019-06-20T08:58:26.341Z,916.91
2019-06-20T08:59:26.304Z,916.93
2019-06-20T09:00:26.265Z,916.92
2019-06-20T09:01:26.228Z,916.94
2019-06-20T09:02:26.192Z,916.93
2019-06-20T09:03:26.378Z,916.95
2019-06-20T09:04:26.111Z,916.93
2019-06-20T09:05:26.137Z,916.92
2019-06-20T09:06:26.032Z,916.90
2019-06-20T09:07:26.020Z,916.89
2019-06-20T09:08:25.973Z,916.94
2019-06-20T09:09:25.918Z,916.96
2019-06-20T09:10:25.881Z,916.93
2019-06-20T09:11:25.841Z,916.95
2019-06-20T09:12:25.804Z,916.95
2019-06-20T09:13:25.763Z,916.95
2019-06-20T09:14:25.725Z,916.97
2019-06-20T09:15:25.698Z,916.96
2019-06-20T09:16:25.662Z,917.00
2019-06-20T09:17:25.612Z,916.99
2019-06-20T09:18:25.587Z,917.06
2019-06-20T09:19:25.536Z,917.05
2019-06-20T09:20:25.508Z,917.09
2019-06-20T09:21:25.465Z,917.10
2019-06-20T09:22:25.429Z,917.09
2019-06-20T09:23:25.416Z,917.07
2019-06-20T09:24:25.353Z,917.08
2019-06-20T09:25:25.512Z,917.08
2019-06-20T09:26:25.268Z,917.13
2019-06-20T09:27:25.242Z,917.10
2019-06-20T09:28:25.194Z,917.09
2019-06-20T09:29:25.278Z,917.13
2019-06-20T09:30:25.124Z,917.11
2019-06-20T09:31:25.233Z,917.14
2019-06-20T09:32:25.040Z,917.12
2019-06-20T09:33:25.041Z,917.12
2019-06-20T09:34:24.966Z,917.15
2019-06-20T09:35:24.932Z,917.17
2019-06-20T09:36:24.905Z,917.13
2019-06-20T09:37:24.902Z,917.15
2019-06-20T09:38:24.812Z,917.13
2019-06-20T09:39:24.775Z,917.12
2019-06-20T09:40:24.749Z,917.10
2019-06-20T09:41:24.700Z,917.13
2019-06-20T09:42:24.671Z,917.12
2019-06-20T09:43:27.884Z,917.10
2019-06-20T09:44:24.599Z,917.08
2019-06-20T09:45:24.582Z,917.12
2019-06-20T09:46:24.567Z,917.09
2019-06-20T09:47:24.727Z,917.07
2019-06-20T09:48:24.448Z,917.09
2019-06-20T09:49:24.466Z,917.10
2019-06-20T09:50:24.372Z,917.09
2019-06-20T09:51:24.340Z,917.08
2019-06-20T09:52:24.317Z,917.07
2019-06-20T09:53:24.456Z,917.13
2019-06-20T09:54:24.324Z,917.13
2019-06-20T09:55:24.194Z,917.17
2019-06-20T09:56:24.145Z,917.14
2019-06-20T09:57:24.112Z,917.19
2019-06-20T09:58:24.433Z,917.14
2019-06-20T09:59:27.756Z,917.06
2019-06-20T10:00:23.987Z,917.16
2019-06-20T10:01:23.973Z,917.19
2019-06-20T10:02:23.931Z,917.23
2019-06-20T10:03:23.875Z,917.26
2019-06-20T10:04:24.004Z,917.21
2019-06-20T10:05:23.806Z,917.22
2019-06-20T10:06:23.782Z,917.20
2019-06-20T10:07:23.722Z,917.25
2019-06-20T10:08:23.683Z,917.27
2019-06-20T10:09:23.651Z,917.34
2019-06-20T10:10:23.627Z,917.40
2019-06-20T10:11:23.583Z,917.45
2019-06-20T10:12:23.550Z,917.43
2019-06-20T10:13:23.510Z,917.40
2019-06-20T10:14:23.764Z,917.43
2019-06-20T10:15:23.457Z,917.41
2019-06-20T10:16:23.395Z,917.55
2019-06-20T10:17:23.366Z,917.59
2019-06-20T10:18:23.330Z,917.54
2019-06-20T10:19:23.289Z,917.52
2019-06-20T10:20:23.250Z,917.54
2019-06-20T10:21:23.227Z,917.58
2019-06-20T10:22:23.187Z,917.56
2019-06-20T10:23:23.147Z,917.56
2019-06-20T10:24:23.126Z,917.59
2019-06-20T10:25:23.115Z,917.64
2019-06-20T10:26:23.054Z,917.68
2019-06-20T10:27:23.012Z,917.73
2019-06-20T10:28:22.979Z,917.73
2019-06-20T10:29:22.948Z,917.78
2019-06-20T10:30:22.910Z,917.77
2019-06-20T10:31:22.875Z,917.82
2019-06-20T10:32:22.844Z,917.86
2019-06-20T10:33:22.814Z,917.89
2019-06-20T10:34:22.837Z,917.91
2019-06-20T10:35:22.745Z,917.92
2019-06-20T10:36:22.713Z,917.93
2019-06-20T10:37:22.682Z,917.98
2019-06-20T10:38:22.645Z,918.01
2019-06-20T10:39:22.621Z,918.03
2019-06-20T10:40:22.579Z,918.05
2019-06-20T10:41:22.548Z,918.09
2019-06-20T10:42:22.527Z,918.12
2019-06-20T10:43:22.625Z,918.11
2019-06-20T10:44:22.457Z,918.12
2019-06-20T10:45:22.432Z,918.12
2019-06-20T10:46:22.419Z,918.18
2019-06-20T10:47:32.337Z,918.22
2019-06-20T10:48:22.363Z,918.16
2019-06-20T10:49:22.292Z,918.27
2019-06-20T10:50:22.318Z,918.32
2019-06-20T10:51:22.229Z,918.36
2019-06-20T10:52:22.210Z,918.34
2019-06-20T10:53:22.203Z,918.28
2019-06-20T10:54:22.142Z,918.26
2019-06-20T10:55:22.112Z,918.21
2019-06-20T10:56:22.076Z,918.34
2019-06-20T10:57:22.087Z,918.29
2019-06-20T10:58:22.023Z,918.22
2019-06-20T10:59:21.982Z,918.33
2019-06-20T11:00:30.711Z,918.48
2019-06-20T11:01:22.046Z,918.46
2019-06-20T11:02:21.898Z,918.31
2019-06-20T11:03:21.856Z,918.28
2019-06-20T11:04:21.829Z,918.27
2019-06-20T11:05:21.792Z,918.27
2019-06-20T11:06:21.786Z,918.25
2019-06-20T11:07:21.730Z,918.21
2019-06-20T11:08:21.699Z,918.26
2019-06-20T11:09:21.676Z,918.26
2019-06-20T11:10:21.642Z,918.26
2019-06-20T11:11:21.604Z,918.30
2019-06-20T11:12:21.600Z,918.34
2019-06-20T11:13:21.539Z,918.44
2019-06-20T11:14:21.743Z,918.52
2019-06-20T11:15:21.490Z,918.44
2019-06-20T11:16:21.479Z,918.41
2019-06-20T11:17:21.416Z,918.40
2019-06-20T11:18:21.386Z,918.40
2019-06-20T11:19:21.368Z,918.46
2019-06-20T11:20:21.469Z,918.64
2019-06-20T11:21:21.296Z,918.71
2019-06-20T11:22:21.286Z,918.83
2019-06-20T11:23:21.221Z,918.87
2019-06-20T11:24:21.206Z,918.86
2019-06-20T11:25:21.185Z,918.60
2019-06-20T11:26:21.128Z,918.58
2019-06-20T11:27:21.095Z,918.78
2019-06-20T11:28:21.075Z,919.09
2019-06-20T11:29:21.032Z,919.05
2019-06-20T11:30:21.025Z,919.05
2019-06-20T11:31:20.972Z,919.06
2019-06-20T11:32:20.961Z,919.11
2019-06-20T11:33:20.905Z,919.15
2019-06-20T11:34:20.877Z,919.10
2019-06-20T11:35:20.875Z,919.14
2019-06-20T11:36:20.818Z,919.08
2019-06-20T11:37:20.789Z,919.12
2019-06-20T11:38:20.758Z,919.09
2019-06-20T11:39:20.743Z,919.15
2019-06-20T11:40:20.717Z,919.15
2019-06-20T11:41:20.669Z,919.12
2019-06-20T11:42:20.635Z,919.17
2019-06-20T11:43:20.619Z,919.21
2019-06-20T11:44:20.590Z,919.22
2019-06-20T11:45:20.544Z,919.20
2019-06-20T11:46:20.528Z,919.18
2019-06-20T11:47:20.656Z,919.23
2019-06-20T11:48:20.458Z,919.22
2019-06-20T11:49:20.437Z,919.16
2019-06-20T11:50:20.444Z,919.13
2019-06-20T11:51:20.379Z,919.18
2019-06-20T11:52:20.345Z,919.18
2019-06-20T11:53:20.322Z,919.19
2019-06-20T11:54:20.293Z,919.20
2019-06-20T11:55:20.281Z,919.20
2019-06-20T11:56:20.235Z,919.21
2019-06-20T11:57:20.206Z,919.19
2019-06-20T11:58:22.823Z,919.17
2019-06-20T11:59:20.160Z,919.16
2019-06-20T12:00:20.183Z,919.15
2019-06-20T12:01:32.229Z,919.13
2019-06-20T12:02:20.083Z,919.17
2019-06-20T12:03:20.055Z,919.16
2019-06-20T12:04:20.028Z,919.19
2019-06-20T12:05:20.018Z,919.18
2019-06-20T12:06:19.974Z,919.19
2019-06-20T12:07:19.949Z,919.20
2019-06-20T12:08:19.924Z,919.18
2019-06-20T12:09:19.919Z,919.18
2019-06-20T12:10:19.876Z,919.19
2019-06-20T12:11:19.864Z,919.20
2019-06-20T12:12:19.819Z,919.19
2019-06-20T12:13:19.825Z,919.16
2019-06-20T12:14:19.778Z,919.17
2019-06-20T12:15:19.748Z,919.17
2019-06-20T12:16:19.751Z,919.21
2019-06-20T12:17:19.690Z,919.20
2019-06-20T12:18:19.704Z,919.20
2019-06-20T12:19:19.643Z,919.22
2019-06-20T12:20:19.665Z,919.24
2019-06-20T12:21:19.733Z,919.20
2019-06-20T12:22:19.845Z,919.21
2019-06-20T12:23:19.541Z,919.24
2019-06-20T12:24:19.550Z,919.17
2019-06-20T12:25:19.489Z,919.22
2019-06-20T12:26:19.520Z,919.21
2019-06-20T12:27:19.440Z,919.21
2019-06-20T12:28:19.586Z,919.17
2019-06-20T12:29:19.396Z,919.19
2019-06-20T12:30:19.365Z,919.23
2019-06-20T12:31:20.037Z,919.21
2019-06-20T12:32:19.308Z,919.20